Terminal Aerodrome Forecast
Issued by NWS

Home | Current Version | Previous Version | Text Only | Print | Product List | Glossary On
Versions: 1 2 3 4 5 6 7 8 9 10 11 12 13 14
000
FTUS41 KPBZ 050237 AAA
TAFLBE
TAF AMD
KLBE 050237Z 0503/0524 30010KT P6SM BKN070
     FM050700 26004KT 5SM BR OVC040
     FM051300 24007KT P6SM -SHRA OVC025=

USA.gov is the U.S. government's official web portal to all federal, state and local government web resources and services.